createdAt,value
2022-07-30T00:00:31.250Z,100344.45
2022-07-30T00:05:39.472Z,100342.09
2022-07-30T00:10:47.584Z,100341.58
2022-07-30T00:15:58.420Z,100336.04
2022-07-30T00:21:06.529Z,100334.55
2022-07-30T00:26:15.110Z,100340.22
2022-07-30T00:31:23.442Z,100340.70
2022-07-30T00:36:31.563Z,100340.11
2022-07-30T00:41:57.221Z,100341.90
2022-07-30T00:47:05.226Z,100336.25
2022-07-30T00:52:13.362Z,100338.95
2022-07-30T00:57:22.804Z,100338.67
2022-07-30T01:02:31.099Z,100331.59
2022-07-30T01:07:39.704Z,100325.56
2022-07-30T01:12:49.443Z,100326.54
2022-07-30T01:18:01.845Z,100315.51
2022-07-30T01:23:15.387Z,100313.68
2022-07-30T01:28:28.020Z,100311.30
2022-07-30T01:33:40.917Z,100309.13
2022-07-30T01:38:51.554Z,100305.13
2022-07-30T01:44:00.958Z,100307.09
2022-07-30T01:49:10.605Z,100303.05
2022-07-30T01:54:23.895Z,100293.55
2022-07-30T01:59:35.408Z,100280.20
2022-07-30T02:04:44.950Z,100269.39
2022-07-30T02:09:57.299Z,100269.27
2022-07-30T02:15:17.773Z,100267.45
2022-07-30T02:20:29.716Z,100264.73
2022-07-30T02:25:45.193Z,100263.39
2022-07-30T02:30:56.214Z,100260.64
2022-07-30T02:36:07.806Z,100258.27
2022-07-30T02:41:21.493Z,100248.60
2022-07-30T02:46:30.528Z,100250.80
2022-07-30T02:52:02.160Z,100241.69
2022-07-30T02:57:11.501Z,100246.98
2022-07-30T03:02:28.938Z,100234.83
2022-07-30T03:07:40.866Z,100220.52
2022-07-30T03:12:51.984Z,100222.80
2022-07-30T03:18:01.758Z,100231.72
2022-07-30T03:23:13.219Z,100233.30
2022-07-30T03:28:23.151Z,100235.72
2022-07-30T03:33:38.388Z,100246.60
2022-07-30T03:38:49.116Z,100243.16
2022-07-30T03:43:58.080Z,100236.14
2022-07-30T03:49:07.605Z,100234.11
2022-07-30T03:54:16.728Z,100238.58
2022-07-30T03:59:59.680Z,100231.70
2022-07-30T04:05:08.877Z,100226.92
2022-07-30T04:10:17.696Z,100225.39
2022-07-30T04:16:37.388Z,100219.02
2022-07-30T04:21:29.639Z,100228.89
2022-07-30T04:26:39.634Z,100244.08
2022-07-30T04:31:48.037Z,100242.49
2022-07-30T04:37:16.861Z,100240.67
2022-07-30T04:42:25.633Z,100220.61
2022-07-30T04:47:42.128Z,100212.74
2022-07-30T04:53:07.762Z,100210.83
2022-07-30T04:58:20.649Z,100210.86
2022-07-30T05:03:29.378Z,100218.30
2022-07-30T05:08:38.189Z,100221.32
2022-07-30T05:13:50.349Z,100235.42
2022-07-30T05:19:01.828Z,100238.04
2022-07-30T05:24:17.585Z,100242.84
2022-07-30T05:29:34.725Z,100247.14
2022-07-30T05:34:51.781Z,100235.30
2022-07-30T05:40:02.596Z,100222.21
2022-07-30T05:45:40.916Z,100213.68
2022-07-30T05:50:48.987Z,100208.78
2022-07-30T05:55:57.535Z,100208.85
2022-07-30T06:01:39.529Z,100206.66
2022-07-30T06:06:53.538Z,100202.85
2022-07-30T06:12:01.828Z,100201.33
2022-07-30T06:17:10.343Z,100198.54
2022-07-30T06:22:38.878Z,100190.29
2022-07-30T06:27:50.558Z,100187.55
2022-07-30T06:32:58.842Z,100183.96
2022-07-30T06:38:08.049Z,100178.80
2022-07-30T06:43:26.476Z,100174.95
2022-07-30T06:48:53.712Z,100175.08
2022-07-30T06:54:02.399Z,100171.29
2022-07-30T06:59:18.452Z,100171.40
2022-07-30T07:04:52.510Z,100172.80
2022-07-30T07:10:00.550Z,100170.71
2022-07-30T07:15:38.664Z,100170.10
2022-07-30T07:20:50.097Z,100174.02
2022-07-30T07:25:59.545Z,100167.94
2022-07-30T07:31:08.623Z,100166.35
2022-07-30T07:36:17.741Z,100161.48
2022-07-30T07:41:26.611Z,100153.66
2022-07-30T07:46:35.791Z,100156.25
2022-07-30T07:51:48.386Z,100150.67
2022-07-30T07:57:01.468Z,100150.27
2022-07-30T08:02:18.660Z,100143.20
2022-07-30T08:07:33.375Z,100139.69
2022-07-30T08:12:58.040Z,100130.96
2022-07-30T08:18:25.374Z,100131.48
2022-07-30T08:23:53.233Z,100128.16
2022-07-30T08:29:02.035Z,100127.84
2022-07-30T08:34:10.373Z,100120.80
2022-07-30T08:39:19.710Z,100117.02
2022-07-30T08:44:28.168Z,100120.05
2022-07-30T08:49:38.367Z,100110.00
2022-07-30T08:54:48.163Z,100106.85
2022-07-30T09:00:01.335Z,100104.75
2022-07-30T09:05:12.178Z,100102.95
2022-07-30T09:10:20.256Z,100103.27
2022-07-30T09:15:28.837Z,100104.23
2022-07-30T09:20:38.510Z,100091.48
2022-07-30T09:25:52.331Z,100099.02
2022-07-30T09:31:20.066Z,100096.70
2022-07-30T09:36:46.359Z,100088.14
2022-07-30T09:42:04.949Z,100080.06
2022-07-30T09:47:31.811Z,100074.21
2022-07-30T09:52:44.268Z,100076.55
2022-07-30T09:58:01.614Z,100076.03
2022-07-30T10:03:33.945Z,100076.95
2022-07-30T10:09:14.246Z,100071.05
2022-07-30T10:14:35.387Z,100070.09
2022-07-30T10:19:54.969Z,100061.58
2022-07-30T10:25:27.809Z,100064.91
2022-07-30T10:31:47.019Z,100060.05
2022-07-30T10:36:35.767Z,100057.80
2022-07-30T10:41:59.622Z,100056.33
2022-07-30T10:47:10.613Z,100060.52
2022-07-30T10:52:39.840Z,100058.75
2022-07-30T10:58:02.330Z,100057.10
2022-07-30T11:03:38.778Z,100057.73
2022-07-30T11:08:57.299Z,100061.98
2022-07-30T11:14:05.963Z,100062.20
2022-07-30T11:19:51.933Z,100058.04
2022-07-30T11:24:49.987Z,100044.94
2022-07-30T11:29:58.209Z,100046.34
2022-07-30T11:35:23.798Z,100043.01
2022-07-30T11:40:33.595Z,100036.98
2022-07-30T11:45:43.460Z,100033.30
2022-07-30T11:50:52.491Z,100025.34
2022-07-30T11:56:02.702Z,100019.78
2022-07-30T12:01:17.167Z,100022.15
2022-07-30T12:06:26.204Z,100015.27
2022-07-30T12:11:38.278Z,100011.63
2022-07-30T12:16:53.270Z,100008.30
2022-07-30T12:22:04.986Z,100007.33
2022-07-30T12:27:14.003Z,99996.59
2022-07-30T12:32:23.373Z,99995.99
2022-07-30T12:37:32.031Z,99986.65
2022-07-30T12:42:51.593Z,99983.64
2022-07-30T12:48:00.149Z,99985.98
2022-07-30T12:53:10.249Z,99993.52
2022-07-30T12:58:18.373Z,99982.09
2022-07-30T13:03:29.847Z,99983.77
2022-07-30T13:08:55.880Z,99982.67
2022-07-30T13:14:04.903Z,99979.77
2022-07-30T13:19:13.783Z,99975.13
2022-07-30T13:24:22.874Z,99970.38
2022-07-30T13:29:31.305Z,99964.30
2022-07-30T13:34:40.372Z,99958.32
2022-07-30T13:39:48.978Z,99945.08
2022-07-30T13:44:57.566Z,99943.60
2022-07-30T13:50:06.775Z,99934.35
2022-07-30T13:55:15.340Z,99929.80
2022-07-30T14:00:25.004Z,99925.38
2022-07-30T14:05:33.974Z,99920.60
2022-07-30T14:10:42.213Z,99915.71
2022-07-30T14:15:50.985Z,99916.89
2022-07-30T14:20:59.602Z,99912.89
2022-07-30T14:26:07.518Z,99906.59
2022-07-30T14:31:15.240Z,99910.11
2022-07-30T14:36:22.942Z,99910.54
2022-07-30T14:41:30.774Z,99915.00
2022-07-30T14:46:38.462Z,99911.94
2022-07-30T14:52:01.330Z,99899.23
2022-07-30T14:57:10.699Z,99892.94
2022-07-30T15:02:18.425Z,99889.87
2022-07-30T15:07:26.186Z,99890.52
2022-07-30T15:12:34.650Z,99884.30
2022-07-30T15:17:46.197Z,99883.45
2022-07-30T15:22:53.787Z,99863.55
2022-07-30T15:28:01.291Z,99875.40
2022-07-30T15:33:08.944Z,99872.66
2022-07-30T15:38:16.620Z,99878.71
2022-07-30T15:43:24.748Z,99875.90
2022-07-30T15:48:32.503Z,99877.27
2022-07-30T15:53:40.876Z,99880.87
2022-07-30T15:58:48.441Z,99877.49
2022-07-30T16:03:56.903Z,99876.29
2022-07-30T16:09:05.860Z,99873.95
2022-07-30T16:14:13.527Z,99876.73
2022-07-30T16:19:20.954Z,99871.85
2022-07-30T16:24:28.454Z,99867.15
2022-07-30T16:29:35.899Z,99866.33
2022-07-30T16:34:43.454Z,99870.95
2022-07-30T16:39:52.530Z,99871.89
2022-07-30T16:45:00.321Z,99867.41
2022-07-30T16:50:09.372Z,99869.70
2022-07-30T16:55:17.609Z,99866.66
2022-07-30T17:00:25.088Z,99862.66
2022-07-30T17:05:32.835Z,99862.86
2022-07-30T17:10:40.954Z,99872.66
2022-07-30T17:15:49.125Z,99871.02
2022-07-30T17:20:56.944Z,99869.92
2022-07-30T17:26:04.673Z,99869.70
2022-07-30T17:31:13.195Z,99864.86
2022-07-30T17:36:20.697Z,99863.76
2022-07-30T17:41:28.538Z,99860.20
2022-07-30T17:46:36.089Z,99864.84
2022-07-30T17:51:43.928Z,99858.63
2022-07-30T17:56:51.739Z,99855.27
2022-07-30T18:02:00.503Z,99848.94
2022-07-30T18:07:08.143Z,99846.73
2022-07-30T18:12:16.200Z,99850.77
2022-07-30T18:17:25.023Z,99855.42
2022-07-30T18:22:32.869Z,99861.55
2022-07-30T18:27:40.359Z,99865.82
2022-07-30T18:32:48.646Z,99871.73
2022-07-30T18:37:55.978Z,99867.33
2022-07-30T18:43:04.330Z,99868.59
2022-07-30T18:48:11.959Z,99875.45
2022-07-30T18:53:20.232Z,99872.73
2022-07-30T18:58:28.006Z,99868.92
2022-07-30T19:03:36.302Z,99864.86
2022-07-30T19:08:43.985Z,99865.27
2022-07-30T19:13:52.376Z,99863.80
2022-07-30T19:19:00.093Z,99862.04
2022-07-30T19:24:09.957Z,99858.67
2022-07-30T19:29:18.289Z,99861.72
2022-07-30T19:34:26.403Z,99857.05
2022-07-30T19:39:35.222Z,99857.77
2022-07-30T19:44:42.991Z,99858.88
2022-07-30T19:49:51.182Z,99856.55
2022-07-30T19:55:01.349Z,99859.81
2022-07-30T20:00:14.126Z,99860.92
2022-07-30T20:05:54.832Z,99858.20
2022-07-30T20:11:01.949Z,99856.14
2022-07-30T20:16:12.749Z,99853.45
2022-07-30T20:21:20.873Z,99852.71
2022-07-30T20:26:48.513Z,99847.70
2022-07-30T20:31:59.873Z,99841.02
2022-07-30T20:37:16.641Z,99834.48
2022-07-30T20:42:31.249Z,99829.67
2022-07-30T20:47:38.999Z,99830.02
2022-07-30T20:52:48.953Z,99829.81
2022-07-30T21:03:25.249Z,99832.46
2022-07-30T21:08:37.842Z,99835.14
2022-07-30T21:13:45.906Z,99829.98
2022-07-30T21:18:55.266Z,99826.27
2022-07-30T21:24:04.667Z,99818.38
2022-07-30T21:29:12.423Z,99815.98
2022-07-30T21:34:19.893Z,99820.46
2022-07-30T21:39:40.049Z,99818.80
2022-07-30T21:44:48.801Z,99816.61
2022-07-30T21:49:57.333Z,99813.44
2022-07-30T21:55:07.230Z,99809.29
2022-07-30T22:00:22.568Z,99804.90
2022-07-30T22:05:38.358Z,99806.19
2022-07-30T22:10:49.058Z,99804.84
2022-07-30T22:15:59.545Z,99801.18
2022-07-30T22:21:07.647Z,99797.37
2022-07-30T22:26:15.214Z,99797.54
2022-07-30T22:31:23.817Z,99795.89
2022-07-30T22:36:38.533Z,99788.33
2022-07-30T22:41:46.393Z,99784.30
2022-07-30T22:46:56.239Z,99776.32
2022-07-30T22:52:23.861Z,99776.36
2022-07-30T22:57:37.703Z,99771.99
2022-07-30T23:02:47.476Z,99776.23
2022-07-30T23:07:55.800Z,99767.50
2022-07-30T23:12:31.725Z,99829.20
2022-07-30T23:13:03.179Z,99758.08
2022-07-30T23:18:11.483Z,99756.05
2022-07-30T23:23:18.794Z,99755.43
2022-07-30T23:28:27.293Z,99739.80
2022-07-30T23:33:34.841Z,99748.54
2022-07-30T23:38:42.512Z,99743.48
2022-07-30T23:43:51.856Z,99740.29
2022-07-30T23:48:59.760Z,99738.45
2022-07-30T23:54:07.711Z,99733.54
2022-07-30T23:59:15.693Z,99733.77
